createdAt,value
2022-10-29T00:00:15.999Z,93.39
2022-10-29T00:02:42.733Z,93.48
2022-10-29T00:05:09.446Z,93.28
2022-10-29T00:07:36.056Z,93.17
2022-10-29T00:10:02.572Z,93.46
2022-10-29T00:12:29.083Z,93.60
2022-10-29T00:14:55.653Z,93.63
2022-10-29T00:17:22.193Z,93.62
2022-10-29T00:19:49.076Z,93.63
2022-10-29T00:22:16.087Z,93.26
2022-10-29T00:24:42.540Z,93.69
2022-10-29T00:27:09.110Z,93.34
2022-10-29T00:29:35.657Z,93.47
2022-10-29T00:32:02.186Z,93.69
2022-10-29T00:34:29.079Z,93.58
2022-10-29T00:36:55.640Z,93.67
2022-10-29T00:39:22.105Z,93.48
2022-10-29T00:41:48.636Z,93.58
2022-10-29T00:44:15.071Z,93.26
2022-10-29T00:46:44.427Z,93.47
2022-10-29T00:49:12.337Z,93.42
2022-10-29T00:51:39.379Z,93.45
2022-10-29T00:54:09.379Z,93.33
2022-10-29T00:56:40.311Z,93.63
2022-10-29T00:59:09.033Z,93.68
2022-10-29T01:01:36.701Z,93.72
2022-10-29T01:04:04.721Z,94.08
2022-10-29T01:06:31.545Z,94.04
2022-10-29T01:08:58.052Z,93.77
2022-10-29T01:11:42.595Z,93.56
2022-10-29T01:14:19.717Z,93.27
2022-10-29T01:17:00.379Z,93.66
2022-10-29T01:20:00.930Z,93.62
2022-10-29T01:22:44.020Z,93.53
2022-10-29T01:25:36.092Z,93.22
2022-10-29T01:31:06.985Z,93.35
2022-10-29T01:33:44.035Z,93.80
2022-10-29T01:36:13.540Z,93.68
2022-10-29T01:38:43.337Z,93.90
2022-10-29T01:41:16.831Z,94.14
2022-10-29T01:44:15.114Z,94.29
2022-10-29T01:46:54.201Z,93.62
2022-10-29T01:49:20.481Z,94.30
2022-10-29T01:51:49.879Z,94.06
2022-10-29T01:54:16.513Z,94.51
2022-10-29T01:56:43.150Z,94.23
2022-10-29T01:59:14.463Z,94.19
2022-10-29T02:01:49.512Z,94.31
2022-10-29T02:07:43.847Z,94.62
2022-10-29T02:10:18.927Z,94.74
2022-10-29T02:12:54.426Z,94.90
2022-10-29T02:15:45.205Z,94.50
2022-10-29T02:18:11.965Z,94.60
2022-10-29T02:20:42.687Z,94.91
2022-10-29T02:23:09.327Z,94.69
2022-10-29T02:25:36.009Z,94.66
2022-10-29T02:28:02.734Z,95.03
2022-10-29T02:30:29.238Z,95.08
2022-10-29T02:32:56.034Z,94.83
2022-10-29T02:35:23.182Z,94.77
2022-10-29T02:37:49.998Z,94.82
2022-10-29T02:40:16.691Z,95.15
2022-10-29T02:42:43.233Z,94.86
2022-10-29T02:45:10.183Z,94.81
2022-10-29T02:47:36.717Z,94.51
2022-10-29T02:50:03.389Z,94.84
2022-10-29T02:52:29.993Z,94.66
2022-10-29T02:54:56.666Z,95.02
2022-10-29T02:57:23.200Z,94.69
2022-10-29T02:59:49.784Z,94.79
2022-10-29T03:02:16.385Z,94.61
2022-10-29T03:04:44.343Z,94.93
2022-10-29T03:07:10.817Z,94.77
2022-10-29T03:09:37.313Z,94.90
2022-10-29T03:12:03.951Z,95.12
2022-10-29T03:14:30.449Z,94.87
2022-10-29T03:16:56.927Z,94.88
2022-10-29T03:19:23.436Z,95.25
2022-10-29T03:21:49.992Z,94.96
2022-10-29T03:24:16.619Z,95.09
2022-10-29T03:26:43.395Z,95.51
2022-10-29T03:29:10.257Z,95.27
2022-10-29T03:31:36.768Z,95.28
2022-10-29T03:34:03.347Z,95.28
2022-10-29T03:36:29.864Z,95.07
2022-10-29T03:38:56.391Z,95.29
2022-10-29T03:41:22.864Z,95.63
2022-10-29T03:43:49.521Z,95.77
2022-10-29T03:46:16.113Z,95.40
2022-10-29T03:48:42.616Z,95.82
2022-10-29T03:51:10.552Z,95.92
2022-10-29T03:53:37.497Z,95.90
2022-10-29T03:56:04.930Z,95.88
2022-10-29T03:58:31.524Z,95.91
2022-10-29T04:01:03.157Z,95.79
2022-10-29T04:03:31.775Z,95.96
2022-10-29T04:06:00.252Z,95.62
2022-10-29T04:08:27.043Z,95.82
2022-10-29T04:10:53.820Z,95.68
2022-10-29T04:13:20.705Z,95.88
2022-10-29T04:15:48.481Z,95.16
2022-10-29T04:18:15.065Z,95.40
2022-10-29T04:21:31.256Z,95.64
2022-10-29T04:29:02.597Z,95.54
2022-10-29T04:31:29.082Z,95.81
2022-10-29T04:33:55.728Z,95.47
2022-10-29T04:36:22.215Z,95.43
2022-10-29T04:38:50.313Z,95.39
2022-10-29T04:41:16.838Z,95.73
2022-10-29T04:43:43.324Z,95.46
2022-10-29T04:46:10.923Z,95.28
2022-10-29T04:48:37.589Z,94.84
2022-10-29T04:51:04.316Z,94.06
2022-10-29T04:53:30.892Z,95.02
2022-10-29T04:56:01.832Z,94.83
2022-10-29T04:58:29.045Z,94.50
2022-10-29T05:01:01.715Z,94.36
2022-10-29T05:03:28.609Z,94.26
2022-10-29T05:05:55.289Z,93.95
2022-10-29T05:08:21.800Z,94.73
2022-10-29T05:10:48.415Z,94.38
2022-10-29T05:13:15.143Z,94.67
2022-10-29T05:15:41.995Z,94.37
2022-10-29T05:18:10.055Z,94.54
2022-10-29T05:20:36.692Z,94.57
2022-10-29T05:23:07.327Z,94.84
2022-10-29T05:25:36.347Z,95.21
2022-10-29T05:28:09.375Z,94.63
2022-10-29T05:30:36.096Z,94.32
2022-10-29T05:33:06.218Z,94.97
2022-10-29T05:35:32.726Z,95.36
2022-10-29T05:38:00.350Z,94.23
2022-10-29T05:40:26.970Z,95.08
2022-10-29T05:42:53.680Z,95.21
2022-10-29T05:45:20.193Z,94.93
2022-10-29T05:47:46.783Z,95.24
2022-10-29T05:50:13.852Z,94.98
2022-10-29T05:52:40.730Z,94.63
2022-10-29T05:55:07.769Z,94.71
2022-10-29T05:57:34.287Z,94.93
2022-10-29T06:00:00.791Z,94.80
2022-10-29T06:02:27.371Z,94.31
2022-10-29T06:04:54.153Z,93.59
2022-10-29T06:07:20.634Z,94.20
2022-10-29T06:09:47.118Z,94.23
2022-10-29T06:12:13.601Z,94.73
2022-10-29T06:14:40.074Z,94.52
2022-10-29T06:17:06.521Z,95.25
2022-10-29T06:19:33.047Z,94.14
2022-10-29T06:22:00.644Z,94.60
2022-10-29T06:24:27.661Z,93.95
2022-10-29T06:26:54.726Z,93.52
2022-10-29T06:29:21.321Z,93.68
2022-10-29T06:31:47.809Z,93.36
2022-10-29T06:34:14.801Z,93.36
2022-10-29T06:36:41.389Z,93.42
2022-10-29T06:39:07.894Z,93.94
2022-10-29T06:41:34.399Z,93.49
2022-10-29T06:44:00.928Z,93.76
2022-10-29T06:46:27.392Z,93.80
2022-10-29T06:48:54.061Z,93.39
2022-10-29T06:51:20.541Z,93.47
2022-10-29T06:53:47.007Z,93.27
2022-10-29T06:56:13.482Z,93.90
2022-10-29T06:58:39.991Z,93.16
2022-10-29T07:01:06.512Z,93.80
2022-10-29T07:03:33.063Z,93.70
2022-10-29T07:06:00.087Z,93.79
2022-10-29T07:08:26.910Z,93.15
2022-10-29T07:10:54.209Z,93.30
2022-10-29T07:13:20.753Z,94.00
2022-10-29T07:15:47.273Z,93.67
2022-10-29T07:18:15.845Z,93.45
2022-10-29T07:20:44.679Z,93.95
2022-10-29T07:23:12.608Z,92.99
2022-10-29T07:25:40.165Z,93.83
2022-10-29T07:28:08.153Z,93.85
2022-10-29T07:30:34.772Z,93.85
2022-10-29T07:33:01.479Z,93.83
2022-10-29T07:35:28.526Z,93.25
2022-10-29T07:38:05.121Z,93.42
2022-10-29T07:40:37.096Z,93.22
2022-10-29T07:43:03.585Z,92.95
2022-10-29T07:45:30.082Z,92.98
2022-10-29T07:48:03.905Z,92.96
2022-10-29T07:50:31.799Z,93.77
2022-10-29T07:53:02.493Z,93.08
2022-10-29T07:58:03.251Z,93.03
2022-10-29T08:00:32.177Z,93.35
2022-10-29T08:02:58.748Z,92.61
2022-10-29T08:05:26.560Z,92.47
2022-10-29T08:07:55.463Z,92.89
2022-10-29T08:10:23.427Z,93.00
2022-10-29T08:12:51.405Z,92.96
2022-10-29T08:15:19.047Z,93.08
2022-10-29T08:17:46.710Z,92.56
2022-10-29T08:20:14.237Z,93.33
2022-10-29T08:22:40.935Z,93.44
2022-10-29T08:25:07.941Z,92.61
2022-10-29T08:27:34.492Z,92.34
2022-10-29T08:30:01.161Z,92.76
2022-10-29T08:32:27.631Z,91.92
2022-10-29T08:34:54.255Z,92.05
2022-10-29T08:37:20.764Z,91.67
2022-10-29T08:39:47.213Z,91.71
2022-10-29T08:42:40.891Z,91.42
2022-10-29T08:45:31.489Z,91.54
2022-10-29T08:48:33.442Z,91.15
2022-10-29T08:51:22.744Z,91.50
2022-10-29T08:54:10.442Z,91.65
2022-10-29T08:56:43.521Z,91.62
2022-10-29T08:59:18.636Z,91.74
2022-10-29T09:01:45.300Z,91.82
2022-10-29T09:04:20.305Z,91.80
2022-10-29T09:07:15.890Z,91.99
2022-10-29T09:10:10.504Z,92.16
2022-10-29T09:12:40.104Z,92.53
2022-10-29T09:15:30.539Z,92.41
2022-10-29T09:18:02.929Z,92.17
2022-10-29T09:20:48.240Z,92.15
2022-10-29T09:23:25.020Z,92.41
2022-10-29T09:26:05.167Z,92.96
2022-10-29T09:28:59.091Z,92.67
2022-10-29T09:31:42.237Z,92.80
2022-10-29T09:34:19.148Z,93.41
2022-10-29T09:36:47.700Z,93.39
2022-10-29T09:39:24.448Z,93.56
2022-10-29T09:41:53.940Z,93.95
2022-10-29T09:44:43.109Z,94.19
2022-10-29T09:47:52.196Z,93.89
2022-10-29T09:51:10.841Z,94.26
2022-10-29T09:53:37.627Z,94.36
2022-10-29T09:56:07.733Z,95.06
2022-10-29T09:58:38.920Z,94.99
2022-10-29T10:01:05.684Z,95.15
2022-10-29T10:03:45.839Z,95.54
2022-10-29T10:06:15.504Z,95.50
2022-10-29T10:09:05.658Z,95.54
2022-10-29T10:11:42.207Z,95.41
2022-10-29T10:14:17.879Z,95.95
2022-10-29T10:16:44.797Z,96.03
2022-10-29T10:19:26.067Z,96.18
2022-10-29T10:22:04.391Z,96.23
2022-10-29T10:24:34.924Z,96.47
2022-10-29T10:27:13.265Z,96.68
2022-10-29T10:29:39.777Z,96.35
2022-10-29T10:32:06.191Z,96.83
2022-10-29T10:34:32.624Z,96.95
2022-10-29T10:37:11.142Z,96.95
2022-10-29T10:40:03.152Z,96.97
2022-10-29T10:42:39.592Z,96.68
2022-10-29T10:45:17.189Z,97.33
2022-10-29T10:47:51.161Z,96.83
2022-10-29T10:50:32.907Z,97.32
2022-10-29T10:53:04.541Z,97.10
2022-10-29T10:55:37.940Z,97.47
2022-10-29T10:58:10.991Z,97.57
2022-10-29T11:00:49.187Z,97.73
2022-10-29T11:03:21.659Z,98.12
2022-10-29T11:06:04.334Z,97.84
2022-10-29T11:08:52.549Z,98.20
2022-10-29T11:11:36.586Z,98.29
2022-10-29T11:14:13.844Z,98.26
2022-10-29T11:16:48.847Z,98.45
2022-10-29T11:19:38.699Z,98.83
2022-10-29T11:22:20.281Z,98.80
2022-10-29T11:24:59.573Z,98.60
2022-10-29T11:27:32.574Z,98.62
2022-10-29T11:30:04.032Z,98.99
2022-10-29T11:33:07.145Z,99.18
2022-10-29T11:35:45.625Z,99.34
2022-10-29T11:38:20.541Z,99.77
2022-10-29T11:40:56.049Z,99.84
2022-10-29T11:43:22.623Z,99.68
2022-10-29T11:46:16.830Z,99.71
2022-10-29T11:49:14.368Z,100.00
2022-10-29T11:52:12.667Z,100.00
2022-10-29T11:55:16.554Z,100.00
2022-10-29T11:58:03.691Z,100.00
2022-10-29T12:00:45.229Z,100.00
2022-10-29T12:03:44.156Z,100.00
2022-10-29T12:06:29.406Z,100.00
2022-10-29T12:09:42.319Z,100.00
2022-10-29T12:12:23.931Z,100.00
2022-10-29T12:15:14.873Z,100.00
2022-10-29T12:17:47.942Z,100.00
2022-10-29T12:20:23.465Z,100.00
2022-10-29T12:23:04.966Z,100.00
2022-10-29T12:25:51.422Z,100.00
2022-10-29T12:28:44.620Z,100.00
2022-10-29T12:31:24.387Z,100.00
2022-10-29T12:33:59.765Z,100.00
2022-10-29T12:36:29.300Z,100.00
2022-10-29T12:38:57.255Z,100.00
2022-10-29T12:41:33.769Z,100.00
2022-10-29T12:44:34.252Z,100.00
2022-10-29T12:47:19.545Z,100.00
2022-10-29T12:49:55.289Z,100.00
2022-10-29T12:52:30.638Z,100.00
2022-10-29T12:55:00.875Z,100.00
2022-10-29T12:57:35.790Z,100.00
2022-10-29T13:00:24.175Z,100.00
2022-10-29T13:02:55.670Z,100.00
2022-10-29T13:05:25.552Z,100.00
2022-10-29T13:08:04.142Z,100.00
2022-10-29T13:10:33.618Z,100.00
2022-10-29T13:13:07.592Z,100.00
2022-10-29T13:15:43.125Z,100.00
2022-10-29T13:18:12.755Z,100.00
2022-10-29T13:20:46.364Z,100.00
2022-10-29T13:23:21.735Z,100.00
2022-10-29T13:25:50.183Z,100.00
2022-10-29T13:28:16.591Z,100.00
2022-10-29T13:30:48.224Z,100.00
2022-10-29T13:33:23.666Z,100.00
2022-10-29T13:36:00.495Z,100.00
2022-10-29T13:38:58.655Z,100.00
2022-10-29T13:41:42.745Z,100.00
2022-10-29T13:44:13.628Z,100.00
2022-10-29T13:46:55.289Z,100.00
2022-10-29T13:49:37.934Z,100.00
2022-10-29T13:52:17.806Z,100.00
2022-10-29T13:54:47.530Z,100.00
2022-10-29T13:57:16.892Z,100.00
2022-10-29T14:00:04.872Z,100.00
2022-10-29T14:02:39.365Z,100.00
2022-10-29T14:05:13.091Z,100.00
2022-10-29T14:08:08.542Z,100.00
2022-10-29T14:10:41.223Z,100.00
2022-10-29T14:13:11.884Z,100.00
2022-10-29T14:15:39.880Z,100.00
2022-10-29T14:18:37.624Z,100.00
2022-10-29T14:21:12.004Z,100.00
2022-10-29T14:23:40.989Z,100.00
2022-10-29T14:26:17.478Z,100.00
2022-10-29T14:28:44.056Z,100.00
2022-10-29T14:31:20.628Z,100.00
2022-10-29T14:33:54.499Z,100.00
2022-10-29T14:36:29.984Z,100.00
2022-10-29T14:39:05.786Z,100.00
2022-10-29T14:41:32.456Z,100.00
2022-10-29T14:44:04.537Z,100.00
2022-10-29T14:46:34.267Z,100.00
2022-10-29T14:49:05.240Z,100.00
2022-10-29T14:51:38.880Z,100.00
2022-10-29T14:54:07.672Z,100.00
2022-10-29T14:56:38.599Z,100.00
2022-10-29T14:59:15.416Z,100.00
2022-10-29T15:01:56.826Z,100.00
2022-10-29T15:04:32.113Z,100.00
2022-10-29T15:07:37.068Z,100.00
2022-10-29T15:10:06.415Z,100.00
2022-10-29T15:12:36.303Z,100.00
2022-10-29T15:15:20.865Z,100.00
2022-10-29T15:18:07.567Z,100.00
2022-10-29T15:20:45.960Z,100.00
2022-10-29T15:23:28.031Z,100.00
2022-10-29T15:26:02.728Z,100.00
2022-10-29T15:28:36.756Z,100.00
2022-10-29T15:31:03.916Z,100.00
2022-10-29T15:33:31.691Z,100.00
2022-10-29T15:36:05.641Z,100.00
2022-10-29T15:38:34.727Z,100.00
2022-10-29T15:41:39.071Z,100.00
2022-10-29T15:44:36.313Z,100.00
2022-10-29T15:47:19.950Z,100.00
2022-10-29T15:49:46.527Z,100.00
2022-10-29T15:52:17.769Z,100.00
2022-10-29T15:54:44.993Z,100.00
2022-10-29T15:57:14.497Z,100.00
2022-10-29T15:59:41.785Z,100.00
2022-10-29T16:02:13.337Z,100.00
2022-10-29T16:04:40.428Z,100.00
2022-10-29T16:07:12.534Z,100.00
2022-10-29T16:09:51.684Z,100.00
2022-10-29T16:12:18.531Z,100.00
2022-10-29T16:14:45.458Z,100.00
2022-10-29T16:17:21.065Z,100.00
2022-10-29T16:19:47.646Z,100.00
2022-10-29T16:22:17.506Z,100.00
2022-10-29T16:24:44.038Z,100.00
2022-10-29T16:27:15.833Z,100.00
2022-10-29T16:29:42.816Z,100.00
2022-10-29T16:32:15.672Z,100.00
2022-10-29T16:34:42.306Z,100.00
2022-10-29T16:37:14.113Z,100.00
2022-10-29T16:39:41.398Z,100.00
2022-10-29T16:42:35.317Z,100.00
2022-10-29T16:45:02.497Z,100.00
2022-10-29T16:47:29.021Z,100.00
2022-10-29T16:49:56.561Z,100.00
2022-10-29T16:52:25.236Z,100.00
2022-10-29T16:54:53.007Z,100.00
2022-10-29T16:57:19.487Z,100.00
2022-10-29T16:59:46.289Z,100.00
2022-10-29T17:02:12.876Z,100.00
2022-10-29T17:04:39.420Z,100.00
2022-10-29T17:07:06.064Z,100.00
2022-10-29T17:09:35.320Z,100.00
2022-10-29T17:12:02.389Z,100.00
2022-10-29T17:14:28.904Z,100.00
2022-10-29T17:16:57.142Z,100.00
2022-10-29T17:19:23.853Z,100.00
2022-10-29T17:21:50.568Z,100.00
2022-10-29T17:24:17.086Z,100.00
2022-10-29T17:26:43.599Z,100.00
2022-10-29T17:29:10.091Z,100.00
2022-10-29T17:31:36.654Z,100.00
2022-10-29T17:34:03.211Z,100.00
2022-10-29T17:36:29.804Z,100.00
2022-10-29T17:38:56.267Z,100.00
2022-10-29T17:41:22.764Z,100.00
2022-10-29T17:43:49.282Z,100.00
2022-10-29T17:46:17.921Z,100.00
2022-10-29T17:48:44.417Z,100.00
2022-10-29T17:51:11.047Z,100.00
2022-10-29T17:53:37.929Z,100.00
2022-10-29T17:56:04.599Z,100.00
2022-10-29T17:58:31.201Z,100.00
2022-10-29T18:01:09.677Z,100.00
2022-10-29T18:03:37.219Z,100.00
2022-10-29T18:06:05.948Z,100.00
2022-10-29T18:08:34.889Z,100.00
2022-10-29T18:11:05.600Z,100.00
2022-10-29T18:13:41.151Z,100.00
2022-10-29T18:16:09.773Z,100.00
2022-10-29T18:18:48.216Z,100.00
2022-10-29T18:21:25.857Z,100.00
2022-10-29T18:23:52.374Z,100.00
2022-10-29T18:26:36.327Z,100.00
2022-10-29T18:29:08.785Z,100.00
2022-10-29T18:31:36.098Z,100.00
2022-10-29T18:34:05.999Z,100.00
2022-10-29T18:36:33.471Z,100.00
2022-10-29T18:39:00.173Z,100.00
2022-10-29T18:41:27.013Z,100.00
2022-10-29T18:43:54.511Z,100.00
2022-10-29T18:46:21.946Z,100.00
2022-10-29T18:48:48.968Z,100.00
2022-10-29T18:51:28.249Z,100.00
2022-10-29T18:53:57.795Z,100.00
2022-10-29T18:56:26.585Z,100.00
2022-10-29T18:58:55.559Z,100.00
2022-10-29T19:01:31.561Z,100.00
2022-10-29T19:04:04.533Z,100.00
2022-10-29T19:06:33.354Z,100.00
2022-10-29T19:09:01.768Z,100.00
2022-10-29T19:11:28.902Z,100.00
2022-10-29T19:13:58.016Z,100.00
2022-10-29T19:16:25.509Z,100.00
2022-10-29T19:19:00.535Z,100.00
2022-10-29T19:21:27.547Z,100.00
2022-10-29T19:23:58.660Z,100.00
2022-10-29T19:26:27.204Z,100.00
2022-10-29T19:28:53.869Z,100.00
2022-10-29T19:31:26.633Z,100.00
2022-10-29T19:33:56.175Z,100.00
2022-10-29T19:36:23.774Z,100.00
2022-10-29T19:38:50.841Z,100.00
2022-10-29T19:41:18.342Z,100.00
2022-10-29T19:43:45.345Z,100.00
2022-10-29T19:46:14.842Z,100.00
2022-10-29T19:48:41.987Z,100.00
2022-10-29T19:51:10.028Z,100.00
2022-10-29T19:53:38.251Z,100.00
2022-10-29T19:56:06.052Z,100.00
2022-10-29T19:58:33.320Z,100.00
2022-10-29T20:01:16.134Z,100.00
2022-10-29T20:03:43.632Z,100.00
2022-10-29T20:06:11.230Z,100.00
2022-10-29T20:08:38.478Z,100.00
2022-10-29T20:11:06.174Z,100.00
2022-10-29T20:13:33.063Z,100.00
2022-10-29T20:15:59.990Z,100.00
2022-10-29T20:18:26.450Z,100.00
2022-10-29T20:20:55.432Z,100.00
2022-10-29T20:23:23.241Z,100.00
2022-10-29T20:25:49.918Z,100.00
2022-10-29T20:28:16.434Z,100.00
2022-10-29T20:30:43.078Z,100.00
2022-10-29T20:33:10.036Z,100.00
2022-10-29T20:35:36.507Z,100.00
2022-10-29T20:38:03.144Z,100.00
2022-10-29T20:40:29.638Z,100.00
2022-10-29T20:42:56.287Z,100.00
2022-10-29T20:45:22.930Z,100.00
2022-10-29T20:47:49.445Z,100.00
2022-10-29T20:50:15.984Z,100.00
2022-10-29T20:52:48.127Z,100.00
2022-10-29T20:55:15.224Z,100.00
2022-10-29T20:57:41.673Z,100.00
2022-10-29T21:00:08.930Z,100.00
2022-10-29T21:02:35.440Z,100.00
2022-10-29T21:05:01.959Z,100.00
2022-10-29T21:07:28.446Z,100.00
2022-10-29T21:09:54.963Z,100.00
2022-10-29T21:12:21.467Z,99.92
2022-10-29T21:14:48.070Z,99.66
2022-10-29T21:17:14.836Z,99.63
2022-10-29T21:19:41.303Z,99.83
2022-10-29T21:22:07.915Z,99.87
2022-10-29T21:24:35.607Z,99.50
2022-10-29T21:27:02.421Z,99.84
2022-10-29T21:29:29.337Z,99.42
2022-10-29T21:31:55.807Z,99.79
2022-10-29T21:34:22.643Z,99.41
2022-10-29T21:36:49.694Z,99.55
2022-10-29T21:39:17.260Z,99.06
2022-10-29T21:41:43.756Z,99.39
2022-10-29T21:44:10.343Z,99.36
2022-10-29T21:46:36.825Z,99.52
2022-10-29T21:49:03.363Z,99.07
2022-10-29T21:51:29.841Z,98.93
2022-10-29T21:53:56.448Z,99.18
2022-10-29T21:56:22.956Z,99.16
2022-10-29T21:58:52.328Z,98.87
2022-10-29T22:01:18.899Z,98.74
2022-10-29T22:03:46.881Z,98.89
2022-10-29T22:06:15.508Z,98.76
2022-10-29T22:08:42.539Z,98.55
2022-10-29T22:11:10.055Z,98.74
2022-10-29T22:13:36.891Z,99.06
2022-10-29T22:16:05.285Z,98.88
2022-10-29T22:18:32.340Z,98.71
2022-10-29T22:21:14.867Z,98.72
2022-10-29T22:23:43.368Z,98.61
2022-10-29T22:26:09.939Z,98.54
2022-10-29T22:28:36.591Z,98.98
2022-10-29T22:31:04.256Z,98.50
2022-10-29T22:33:30.996Z,99.11
2022-10-29T22:36:23.468Z,98.95
2022-10-29T22:38:54.913Z,98.87
2022-10-29T22:41:22.487Z,99.20
2022-10-29T22:43:49.048Z,99.14
2022-10-29T22:46:17.180Z,99.08
2022-10-29T22:48:43.674Z,98.98
2022-10-29T22:51:15.916Z,99.18
2022-10-29T22:53:43.075Z,99.02
2022-10-29T22:56:17.856Z,99.75
2022-10-29T22:58:44.799Z,99.60
2022-10-29T23:01:14.832Z,99.29
2022-10-29T23:03:42.198Z,99.43
2022-10-29T23:06:11.138Z,99.35
2022-10-29T23:08:37.911Z,99.01
2022-10-29T23:11:09.221Z,98.83
2022-10-29T23:13:35.797Z,99.32
2022-10-29T23:16:02.473Z,98.97
2022-10-29T23:18:29.175Z,99.03
2022-10-29T23:21:00.520Z,99.07
2022-10-29T23:23:27.817Z,99.08
2022-10-29T23:25:57.828Z,99.26
2022-10-29T23:28:24.506Z,99.17
2022-10-29T23:30:58.129Z,99.10
2022-10-29T23:33:24.927Z,98.99
2022-10-29T23:35:51.413Z,98.95
2022-10-29T23:38:18.215Z,99.15
2022-10-29T23:40:46.056Z,98.82
2022-10-29T23:43:13.213Z,99.06
2022-10-29T23:45:41.121Z,99.33
2022-10-29T23:48:08.721Z,99.36
2022-10-29T23:50:36.377Z,99.22
2022-10-29T23:53:03.656Z,99.67
2022-10-29T23:55:30.116Z,99.50
2022-10-29T23:57:56.586Z,99.43
